createdAt,value
2017-11-27T00:01:55.159Z,4.57
2017-11-27T00:04:22.857Z,4.60
2017-11-27T00:06:51.259Z,4.53
2017-11-27T00:09:19.185Z,4.03
2017-11-27T00:11:48.820Z,4.47
2017-11-27T00:14:17.324Z,4.27
2017-11-27T00:16:46.780Z,4.57
2017-11-27T00:19:14.531Z,4.00
2017-11-27T00:21:43.822Z,4.30
2017-11-27T00:24:12.232Z,4.07
2017-11-27T00:26:39.911Z,4.00
2017-11-27T00:29:07.704Z,4.00
2017-11-27T00:31:35.365Z,4.27
2017-11-27T01:19:32.844Z,4.70
2017-11-27T01:22:00.642Z,4.30
2017-11-27T01:24:28.309Z,4.00
2017-11-27T01:26:57.542Z,4.40
2017-11-27T01:29:25.238Z,4.20
2017-11-27T01:31:54.459Z,4.53
2017-11-27T01:34:22.170Z,4.20
2017-11-27T01:36:49.812Z,4.37
2017-11-27T01:39:17.471Z,4.33
2017-11-27T01:41:45.861Z,4.30
2017-11-27T01:44:20.058Z,4.80
2017-11-27T01:46:47.720Z,3.80
2017-11-27T01:49:18.112Z,4.30
2017-11-27T01:51:46.743Z,4.30
2017-11-27T01:54:14.462Z,3.87
2017-11-27T01:56:43.749Z,3.87
2017-11-27T01:59:11.596Z,4.77
2017-11-27T02:01:40.845Z,4.53
2017-11-27T02:04:10.366Z,4.20
2017-11-27T02:06:39.826Z,3.77
2017-11-27T02:09:08.283Z,4.03
2017-11-27T02:11:37.586Z,4.23
2017-11-27T02:14:05.283Z,3.83
2017-11-27T02:16:34.694Z,4.63
2017-11-27T02:19:04.087Z,4.20
2017-11-27T02:21:31.798Z,4.13
2017-11-27T02:24:00.226Z,3.87
2017-11-27T02:26:27.956Z,4.10
2017-11-27T02:28:58.477Z,4.20
2017-11-27T02:31:28.294Z,4.03
2017-11-27T02:33:56.920Z,3.80
2017-11-27T02:36:27.539Z,4.20
2017-11-27T02:38:55.921Z,3.80
2017-11-27T02:41:23.575Z,3.80
2017-11-27T02:43:51.249Z,4.37
2017-11-27T02:46:19.233Z,4.20
2017-11-27T02:48:46.893Z,3.87
2017-11-27T02:51:15.400Z,4.50
2017-11-27T02:53:43.075Z,4.13
2017-11-27T02:56:12.344Z,4.20
2017-11-27T02:58:40.046Z,4.00
2017-11-27T03:01:07.788Z,4.40
2017-11-27T03:03:35.440Z,4.60
2017-11-27T03:06:03.291Z,4.07
2017-11-27T03:08:32.550Z,4.40
2017-11-27T03:11:00.240Z,4.63
2017-11-27T03:13:29.508Z,4.30
2017-11-27T03:15:58.931Z,3.70
2017-11-27T03:18:28.225Z,4.10
2017-11-27T03:20:55.945Z,3.90
2017-11-27T03:23:25.380Z,4.63
2017-11-27T03:25:54.049Z,4.40
2017-11-27T03:28:23.407Z,4.77
2017-11-27T03:30:53.042Z,4.20
2017-11-27T03:33:24.646Z,4.50
2017-11-27T03:35:54.207Z,4.87
2017-11-27T03:38:21.896Z,4.50
2017-11-27T03:40:51.140Z,3.90
2017-11-27T03:43:19.594Z,4.43
2017-11-27T03:45:48.169Z,4.40
2017-11-27T03:48:17.844Z,4.47
2017-11-27T03:50:46.304Z,4.17
2017-11-27T03:53:13.974Z,4.10
2017-11-27T03:55:43.515Z,4.33
2017-11-27T03:58:12.036Z,4.87
2017-11-27T04:00:41.580Z,3.90
2017-11-27T04:03:11.067Z,4.27
2017-11-27T04:05:38.742Z,6.40
2017-11-27T04:08:09.041Z,4.30
2017-11-27T04:10:39.283Z,4.43
2017-11-27T04:13:07.091Z,4.77
2017-11-27T04:15:35.510Z,4.60
2017-11-27T04:18:05.912Z,3.87
2017-11-27T04:20:35.385Z,3.97
2017-11-27T04:23:04.826Z,4.57
2017-11-27T04:25:32.462Z,4.87
2017-11-27T04:28:00.990Z,4.30
2017-11-27T04:30:30.354Z,4.20
2017-11-27T04:32:58.827Z,4.17
2017-11-27T04:35:28.250Z,4.67
2017-11-27T04:37:55.951Z,4.60
2017-11-27T04:40:24.332Z,4.73
2017-11-27T04:42:52.016Z,4.33
2017-11-27T04:45:22.333Z,3.83
2017-11-27T04:47:51.859Z,3.83
2017-11-27T04:53:07.948Z,3.90
2017-11-27T04:55:35.665Z,4.37
2017-11-27T04:58:04.081Z,4.50
2017-11-27T05:00:34.134Z,4.17
2017-11-27T05:03:03.407Z,4.37
2017-11-27T05:05:31.112Z,4.43
2017-11-27T05:07:59.557Z,4.43
2017-11-27T05:10:27.398Z,5.00
2017-11-27T05:12:55.939Z,4.37
2017-11-27T05:15:23.810Z,4.63
2017-11-27T05:17:51.433Z,4.30
2017-11-27T05:20:20.874Z,4.33
2017-11-27T05:22:48.595Z,4.47
2017-11-27T05:25:16.289Z,4.80
2017-11-27T05:27:46.172Z,4.00
2017-11-27T05:30:15.429Z,4.10
2017-11-27T05:32:44.800Z,3.80
2017-11-27T05:35:14.537Z,4.93
2017-11-27T05:37:43.000Z,4.40
2017-11-27T05:40:11.497Z,4.20
2017-11-27T05:42:41.771Z,4.50
2017-11-27T05:45:11.675Z,4.30
2017-11-27T05:47:41.182Z,4.27
2017-11-27T05:50:08.911Z,3.83
2017-11-27T05:52:36.591Z,4.03
2017-11-27T05:55:05.263Z,4.57
2017-11-27T05:57:34.760Z,4.10
2017-11-27T06:00:02.536Z,4.40
2017-11-27T06:02:31.816Z,4.80
2017-11-27T06:05:01.117Z,4.20
2017-11-27T06:07:28.837Z,4.47
2017-11-27T06:09:56.476Z,4.80
2017-11-27T06:12:26.932Z,3.70
2017-11-27T06:14:54.600Z,4.43
2017-11-27T06:17:24.010Z,4.60
2017-11-27T06:19:51.716Z,4.70
2017-11-27T06:22:19.471Z,3.93
2017-11-27T06:24:47.120Z,4.27
2017-11-27T06:27:17.907Z,3.60
2017-11-27T06:29:45.552Z,3.93
2017-11-27T06:32:14.917Z,3.57
2017-11-27T06:34:44.456Z,3.53
2017-11-27T06:37:12.275Z,3.50
2017-11-27T06:39:41.579Z,3.97
2017-11-27T06:42:09.268Z,3.67
2017-11-27T06:44:39.753Z,3.33
2017-11-27T06:47:07.448Z,3.63
2017-11-27T06:49:36.026Z,3.23
2017-11-27T06:52:03.722Z,2.90
2017-11-27T06:54:31.441Z,3.20
2017-11-27T06:57:01.798Z,3.37
2017-11-27T06:59:29.623Z,3.80
2017-11-27T07:01:57.325Z,3.93
2017-11-27T07:04:24.974Z,3.40
2017-11-27T07:06:52.833Z,3.60
2017-11-27T07:09:20.493Z,4.17
2017-11-27T07:11:48.169Z,4.20
2017-11-27T07:14:19.314Z,4.50
2017-11-27T07:16:46.940Z,5.73
2017-11-27T07:19:14.641Z,6.60
2017-11-27T07:21:44.000Z,4.27
2017-11-27T07:24:12.429Z,3.77
2017-11-27T07:26:40.076Z,5.87
2017-11-27T07:29:10.332Z,4.80
2017-11-27T07:31:38.028Z,4.00
2017-11-27T07:34:07.614Z,4.77
2017-11-27T07:36:37.040Z,4.23
2017-11-27T07:39:11.862Z,3.83
2017-11-27T07:41:39.542Z,5.30
2017-11-27T07:44:08.963Z,3.30
2017-11-27T07:46:36.628Z,3.67
2017-11-27T07:49:05.053Z,3.47
2017-11-27T07:51:35.631Z,3.50
2017-11-27T07:54:03.547Z,3.83
2017-11-27T07:56:31.213Z,3.37
2017-11-27T07:59:01.482Z,6.10
2017-11-27T08:01:29.197Z,4.50
2017-11-27T08:03:58.550Z,3.57
2017-11-27T08:06:27.850Z,3.80
2017-11-27T08:08:55.612Z,5.27
2017-11-27T08:11:23.456Z,3.80
2017-11-27T08:13:51.142Z,3.63
2017-11-27T08:16:20.564Z,3.53
2017-11-27T08:18:50.983Z,3.27
2017-11-27T08:21:20.294Z,4.60
2017-11-27T08:23:48.948Z,4.03
2017-11-27T08:26:18.202Z,4.00
2017-11-27T08:28:45.983Z,4.30
2017-11-27T08:31:18.236Z,3.00
2017-11-27T08:33:46.569Z,4.73
2017-11-27T08:36:14.847Z,4.93
2017-11-27T08:38:42.614Z,4.90
2017-11-27T08:41:12.944Z,3.83
2017-11-27T08:43:42.498Z,4.43
2017-11-27T08:46:10.216Z,5.50
2017-11-27T08:48:37.911Z,5.20
2017-11-27T08:51:05.646Z,3.70
2017-11-27T08:53:34.031Z,4.70
2017-11-27T08:56:01.685Z,3.97
2017-11-27T08:58:30.975Z,3.70
2017-11-27T09:01:00.380Z,4.07
2017-11-27T09:03:28.805Z,3.60
2017-11-27T09:05:56.572Z,3.70
2017-11-27T09:08:24.256Z,3.23
2017-11-27T09:10:53.685Z,3.90
2017-11-27T09:13:21.409Z,3.93
2017-11-27T09:15:49.113Z,3.37
2017-11-27T09:18:16.736Z,3.10
2017-11-27T09:20:44.438Z,3.20
2017-11-27T09:23:12.196Z,3.30
2017-11-27T09:25:39.888Z,3.70
2017-11-27T09:28:09.267Z,3.50
2017-11-27T09:30:36.955Z,3.30
2017-11-27T09:33:04.677Z,3.50
2017-11-27T09:35:35.011Z,3.50
2017-11-27T09:38:05.056Z,3.27
2017-11-27T09:40:34.727Z,2.90
2017-11-27T09:43:04.083Z,3.50
2017-11-27T09:45:31.929Z,3.50
2017-11-27T09:47:59.602Z,3.50
2017-11-27T09:50:27.242Z,3.20
2017-11-27T09:52:55.661Z,3.37
2017-11-27T09:55:25.082Z,3.17
2017-11-27T09:57:52.796Z,2.63
2017-11-27T10:00:21.164Z,3.47
2017-11-27T10:02:51.471Z,3.90
2017-11-27T10:05:19.152Z,3.30
2017-11-27T10:07:49.420Z,3.43
2017-11-27T10:10:17.153Z,3.03
2017-11-27T10:12:44.843Z,3.50
2017-11-27T10:15:15.189Z,3.00
2017-11-27T10:17:43.101Z,3.50
2017-11-27T10:20:12.498Z,3.40
2017-11-27T10:22:40.211Z,3.40
2017-11-27T10:25:10.330Z,3.07
2017-11-27T10:27:38.223Z,3.40
2017-11-27T10:30:07.523Z,3.43
2017-11-27T10:32:35.224Z,3.20
2017-11-27T10:35:04.485Z,3.43
2017-11-27T10:37:34.064Z,2.90
2017-11-27T10:40:02.504Z,2.60
2017-11-27T10:42:30.175Z,3.30
2017-11-27T10:45:00.477Z,3.33
2017-11-27T10:47:28.139Z,4.10
2017-11-27T10:49:57.420Z,3.60
2017-11-27T10:52:25.081Z,2.83
2017-11-27T10:54:55.017Z,2.70
2017-11-27T10:57:22.718Z,2.47
2017-11-27T10:59:50.433Z,2.50
2017-11-27T11:02:18.804Z,2.70
2017-11-27T11:04:49.341Z,2.93
2017-11-27T11:07:19.657Z,2.30
2017-11-27T11:09:50.023Z,2.77
2017-11-27T11:12:20.336Z,3.50
2017-11-27T11:14:50.629Z,2.47
2017-11-27T11:17:18.357Z,2.57
2017-11-27T11:19:46.051Z,2.80
2017-11-27T11:22:15.325Z,2.33
2017-11-27T11:24:43.080Z,2.10
2017-11-27T11:27:13.491Z,2.43
2017-11-27T11:29:41.172Z,2.20
2017-11-27T11:32:08.807Z,2.17
2017-11-27T11:34:37.199Z,1.70
2017-11-27T11:37:06.668Z,1.97
2017-11-27T11:39:35.248Z,1.57
2017-11-27T11:42:03.669Z,2.00
2017-11-27T11:44:33.640Z,1.87
2017-11-27T11:47:04.130Z,1.93
2017-11-27T11:49:31.937Z,1.90
2017-11-27T11:52:00.330Z,1.93
2017-11-27T11:54:30.622Z,2.47
2017-11-27T11:57:00.017Z,1.63
2017-11-27T11:59:27.750Z,2.00
2017-11-27T12:01:57.077Z,1.80
2017-11-27T12:04:26.420Z,1.77
2017-11-27T12:06:55.838Z,1.73
2017-11-27T12:09:24.367Z,1.77
2017-11-27T12:11:52.014Z,1.87
2017-11-27T12:14:19.662Z,1.90
2017-11-27T12:16:49.237Z,1.70
2017-11-27T12:19:17.884Z,1.80
2017-11-27T12:21:47.901Z,1.30
2017-11-27T12:24:18.355Z,2.17
2017-11-27T12:26:49.079Z,1.50
2017-11-27T12:29:18.403Z,2.27
2017-11-27T12:31:46.865Z,1.73
2017-11-27T12:34:14.541Z,1.67
2017-11-27T12:36:42.257Z,2.00
2017-11-27T12:39:09.892Z,1.70
2017-11-27T12:41:37.555Z,1.47
2017-11-27T12:44:06.863Z,1.40
2017-11-27T12:46:36.257Z,1.60
2017-11-27T12:49:03.924Z,1.43
2017-11-27T12:51:33.214Z,2.50
2017-11-27T12:54:02.634Z,1.60
2017-11-27T12:56:32.103Z,2.50
2017-11-27T12:59:00.780Z,1.90
2017-11-27T13:01:31.954Z,1.97
2017-11-27T13:04:00.527Z,1.60
2017-11-27T13:06:29.223Z,1.60
2017-11-27T13:08:59.476Z,1.70
2017-11-27T13:11:28.856Z,1.50
2017-11-27T13:13:57.218Z,2.10
2017-11-27T13:16:25.717Z,1.70
2017-11-27T13:18:54.258Z,1.83
2017-11-27T13:21:21.990Z,1.70
2017-11-27T13:23:50.450Z,1.60
2017-11-27T13:26:20.009Z,2.10
2017-11-27T13:28:47.696Z,2.30
2017-11-27T13:31:15.324Z,1.67
2017-11-27T13:33:43.112Z,2.20
2017-11-27T13:36:11.546Z,1.90
2017-11-27T13:38:39.214Z,1.90
2017-11-27T13:41:09.684Z,2.37
2017-11-27T13:43:37.796Z,1.60
2017-11-27T13:46:06.413Z,2.20
2017-11-27T13:48:34.126Z,2.13
2017-11-27T13:51:01.764Z,2.27
2017-11-27T13:53:30.220Z,1.87
2017-11-27T13:55:57.886Z,2.80
2017-11-27T13:58:27.308Z,2.10
2017-11-27T14:00:54.986Z,2.20
2017-11-27T14:03:22.642Z,1.77
2017-11-27T14:05:51.026Z,2.00
2017-11-27T14:08:18.716Z,2.60
2017-11-27T14:10:46.418Z,2.00
2017-11-27T14:13:14.924Z,2.37
2017-11-27T14:15:42.678Z,1.87
2017-11-27T14:18:10.377Z,2.03
2017-11-27T14:20:40.675Z,1.63
2017-11-27T14:23:10.207Z,1.57
2017-11-27T14:25:37.963Z,1.70
2017-11-27T14:28:06.365Z,1.90
2017-11-27T14:30:34.018Z,1.77
2017-11-27T14:33:02.442Z,1.50
2017-11-27T14:35:30.822Z,2.13
2017-11-27T14:38:01.887Z,1.90
2017-11-27T14:40:29.623Z,2.13
2017-11-27T14:42:57.252Z,1.90
2017-11-27T14:45:26.690Z,1.93
2017-11-27T14:47:55.979Z,2.40
2017-11-27T14:50:23.934Z,1.80
2017-11-27T14:52:51.609Z,2.33
2017-11-27T14:55:19.282Z,1.80
2017-11-27T14:57:48.705Z,2.80
2017-11-27T15:00:18.579Z,2.40
2017-11-27T15:02:46.961Z,2.43
2017-11-27T15:05:16.339Z,2.73
2017-11-27T15:07:45.658Z,2.40
2017-11-27T15:10:13.411Z,2.17
2017-11-27T15:12:41.038Z,2.10
2017-11-27T15:15:11.686Z,2.10
2017-11-27T15:17:41.205Z,1.93
2017-11-27T15:20:11.811Z,2.20
2017-11-27T15:22:39.462Z,1.80
2017-11-27T15:25:09.659Z,1.80
2017-11-27T15:27:37.379Z,1.90
2017-11-27T15:30:07.440Z,2.83
2017-11-27T15:32:35.171Z,2.00
2017-11-27T15:35:02.969Z,2.00
2017-11-27T15:37:30.659Z,1.90
2017-11-27T15:40:00.071Z,1.93
2017-11-27T15:42:29.391Z,2.17
2017-11-27T15:44:57.873Z,1.90
2017-11-27T15:47:27.177Z,2.40
2017-11-27T15:49:54.915Z,2.47
2017-11-27T15:52:25.367Z,2.17
2017-11-27T15:54:54.865Z,2.30
2017-11-27T15:57:24.343Z,2.17
2017-11-27T15:59:52.743Z,2.80
2017-11-27T16:02:22.268Z,1.97
2017-11-27T16:04:50.743Z,2.40
2017-11-27T16:07:18.414Z,2.40
2017-11-27T16:09:46.039Z,2.40
2017-11-27T16:12:13.807Z,2.50
2017-11-27T16:14:41.450Z,2.00
2017-11-27T16:17:10.886Z,2.03
2017-11-27T16:19:40.232Z,1.90
2017-11-27T16:22:11.938Z,1.80
2017-11-27T16:24:40.501Z,2.77
2017-11-27T16:27:10.379Z,2.10
2017-11-27T16:29:38.216Z,2.53
2017-11-27T16:32:05.893Z,2.80
2017-11-27T16:34:33.563Z,2.60
2017-11-27T16:37:01.268Z,2.77
2017-11-27T16:39:30.563Z,2.70
2017-11-27T16:42:00.909Z,2.00
2017-11-27T16:44:28.623Z,2.27
2017-11-27T16:46:56.289Z,2.23
2017-11-27T16:49:25.779Z,1.97
2017-11-27T16:51:55.179Z,2.50
2017-11-27T16:54:23.803Z,3.67
2017-11-27T16:56:52.576Z,2.97
2017-11-27T16:59:20.363Z,2.60
2017-11-27T17:01:48.114Z,3.13
2017-11-27T17:04:17.468Z,2.70
2017-11-27T17:06:45.296Z,3.10
2017-11-27T17:09:13.014Z,3.40
2017-11-27T17:11:40.734Z,2.90
2017-11-27T17:14:08.514Z,2.80
2017-11-27T17:16:37.794Z,2.77
2017-11-27T17:19:06.529Z,2.43
2017-11-27T17:21:37.146Z,2.33
2017-11-27T17:24:06.633Z,2.20
2017-11-27T17:26:34.508Z,2.70
2017-11-27T17:29:04.129Z,2.40
2017-11-27T17:31:31.877Z,2.40
2017-11-27T17:34:01.369Z,2.07
2017-11-27T17:36:29.081Z,2.43
2017-11-27T17:38:56.900Z,2.97
2017-11-27T17:41:26.274Z,2.63
2017-11-27T17:43:55.798Z,2.50
2017-11-27T17:46:23.521Z,2.97
2017-11-27T17:48:51.533Z,3.83
2017-11-27T17:51:20.980Z,4.70
2017-11-27T17:53:50.415Z,3.70
2017-11-27T17:56:19.745Z,2.70
2017-11-27T17:58:47.449Z,2.50
2017-11-27T18:01:15.939Z,1.87
2017-11-27T18:03:44.624Z,1.90
2017-11-27T18:06:12.477Z,2.33
2017-11-27T18:08:40.893Z,2.50
2017-11-27T18:11:08.645Z,1.93
2017-11-27T18:13:36.348Z,2.50
2017-11-27T18:16:04.803Z,2.33
2017-11-27T18:18:32.530Z,2.20
2017-11-27T18:21:02.800Z,2.40
2017-11-27T18:23:31.273Z,1.70
2017-11-27T18:25:58.935Z,1.90
2017-11-27T18:28:26.822Z,2.27
2017-11-27T18:30:54.592Z,2.10
2017-11-27T18:33:22.286Z,2.00
2017-11-27T18:35:50.117Z,2.50
2017-11-27T18:38:19.645Z,1.90
2017-11-27T18:40:47.597Z,1.83
2017-11-27T18:43:15.274Z,1.83
2017-11-27T18:45:42.968Z,1.77
2017-11-27T18:48:10.672Z,1.77
2017-11-27T18:50:41.066Z,1.80
2017-11-27T18:53:10.505Z,1.80
2017-11-27T18:55:40.123Z,1.60
2017-11-27T18:58:08.254Z,2.30
2017-11-27T19:00:36.092Z,2.50
2017-11-27T19:03:05.482Z,2.80
2017-11-27T19:05:33.947Z,2.57
2017-11-27T19:08:01.734Z,2.13
2017-11-27T19:10:31.155Z,2.60
2017-11-27T19:13:01.982Z,2.67
2017-11-27T19:15:31.455Z,3.00
2017-11-27T19:18:01.834Z,4.00
2017-11-27T19:20:31.405Z,3.73
2017-11-27T19:23:00.016Z,2.60
2017-11-27T19:25:30.575Z,2.23
2017-11-27T19:27:58.521Z,1.80
2017-11-27T19:30:28.910Z,2.17
2017-11-27T19:32:58.549Z,2.10
2017-11-27T19:35:28.093Z,1.93
2017-11-27T19:37:58.486Z,1.97
2017-11-27T19:40:28.051Z,2.07
2017-11-27T19:42:57.542Z,2.10
2017-11-27T19:45:28.140Z,2.10
2017-11-27T19:47:55.912Z,2.03
2017-11-27T19:50:24.305Z,1.87
2017-11-27T19:52:52.188Z,1.90
2017-11-27T19:55:21.611Z,1.87
2017-11-27T19:57:49.341Z,1.80
2017-11-27T20:00:18.794Z,2.27
2017-11-27T20:02:47.531Z,2.03
2017-11-27T20:05:15.401Z,1.70
2017-11-27T20:07:44.992Z,1.77
2017-11-27T20:10:13.027Z,2.03
2017-11-27T20:12:43.434Z,1.90
2017-11-27T20:15:17.067Z,1.80
2017-11-27T20:17:47.691Z,1.67
2017-11-27T20:20:16.439Z,1.90
2017-11-27T20:22:45.015Z,1.80
2017-11-27T20:25:15.531Z,1.57
2017-11-27T20:27:43.350Z,1.70
2017-11-27T20:30:11.175Z,1.80
2017-11-27T20:32:41.038Z,1.90
2017-11-27T20:35:09.566Z,1.67
2017-11-27T20:37:37.360Z,2.10
2017-11-27T20:40:05.086Z,1.77
2017-11-27T20:42:34.513Z,1.70
2017-11-27T20:45:02.400Z,1.30
2017-11-27T20:47:32.850Z,1.40
2017-11-27T20:50:01.539Z,1.50
2017-11-27T20:52:29.279Z,1.40
2017-11-27T20:54:57.782Z,1.47
2017-11-27T20:57:30.676Z,1.50
2017-11-27T20:59:59.139Z,1.70
2017-11-27T21:02:26.911Z,1.50
2017-11-27T21:04:54.679Z,1.90
2017-11-27T21:07:22.351Z,1.87
2017-11-27T21:09:50.033Z,1.37
2017-11-27T21:12:17.699Z,1.67
2017-11-27T21:14:46.137Z,1.30
2017-11-27T21:17:14.226Z,1.70
2017-11-27T21:19:42.105Z,1.30
2017-11-27T21:22:10.200Z,1.43
2017-11-27T21:24:38.192Z,1.70
2017-11-27T21:27:08.884Z,1.60
2017-11-27T21:29:39.238Z,1.37
2017-11-27T21:32:07.312Z,1.10
2017-11-27T21:34:35.148Z,1.20
2017-11-27T21:37:03.494Z,1.20
2017-11-27T21:39:32.129Z,2.00
2017-11-27T21:42:01.777Z,2.00
2017-11-27T21:44:29.725Z,1.50
2017-11-27T21:46:57.697Z,1.10
2017-11-27T21:49:25.452Z,1.20
2017-11-27T21:51:53.525Z,1.20
2017-11-27T21:54:23.085Z,1.10
2017-11-27T21:56:53.469Z,1.33
2017-11-27T21:59:22.252Z,1.30
2017-11-27T22:01:52.833Z,1.00
2017-11-27T22:04:20.710Z,1.00
2017-11-27T22:06:50.237Z,1.20
2017-11-27T22:09:18.044Z,1.00
2017-11-27T22:11:45.874Z,1.30
2017-11-27T22:14:13.661Z,1.00
2017-11-27T22:16:41.337Z,0.90
2017-11-27T22:19:09.041Z,1.10
2017-11-27T22:21:36.797Z,1.00
2017-11-27T22:24:06.360Z,0.90
2017-11-27T22:26:34.189Z,0.87
2017-11-27T22:29:02.745Z,1.20
2017-11-27T22:31:30.618Z,0.80
2017-11-27T22:34:01.290Z,0.90
2017-11-27T22:36:29.830Z,1.10
2017-11-27T22:38:57.536Z,1.00
2017-11-27T22:41:25.668Z,1.00
2017-11-27T22:43:54.251Z,0.93
2017-11-27T22:46:22.026Z,1.10
2017-11-27T22:48:49.996Z,1.20
2017-11-27T22:51:18.714Z,0.90
2017-11-27T22:53:48.509Z,1.00
2017-11-27T22:56:18.415Z,0.90
2017-11-27T22:58:49.171Z,1.30
2017-11-27T23:01:18.685Z,1.00
2017-11-27T23:03:46.464Z,1.07
2017-11-27T23:06:14.240Z,0.90
2017-11-27T23:08:42.056Z,0.90
2017-11-27T23:11:09.934Z,0.90
2017-11-27T23:13:37.677Z,0.90
2017-11-27T23:16:05.373Z,0.80
2017-11-27T23:18:33.842Z,1.00
2017-11-27T23:21:02.430Z,0.93
2017-11-27T23:23:31.002Z,1.03
2017-11-27T23:26:01.673Z,1.00
2017-11-27T23:28:29.400Z,0.90
2017-11-27T23:30:57.177Z,0.80
2017-11-27T23:33:26.614Z,0.80
2017-11-27T23:35:54.370Z,1.00
2017-11-27T23:38:22.261Z,0.87
2017-11-27T23:40:53.847Z,1.10
2017-11-27T23:43:22.810Z,0.80
2017-11-27T23:45:52.365Z,1.13
2017-11-27T23:48:22.312Z,0.90
2017-11-27T23:50:50.181Z,0.70
2017-11-27T23:53:17.958Z,1.07
2017-11-27T23:55:45.815Z,1.07
2017-11-27T23:58:13.616Z,0.90
